Wetterdaten: Woche 04.07.22 - 10.07.22 (KW27)
Datum Zeit Temp. Aussen Temp. o. S. Temp +5cm Feuchte Auss Luftdruck Regen Sonnenschein Regendauer Solar Windben Empfang
04.07.2022 00:00 16,2 C 14,8 C 12,0 C 78 % 1020,5 hPa 0,0 l/m 0,00 h 0,00 h 0 W/m 1,8 km/h (1 Bft) 98,90 %
04.07.2022 01:00 15,4 C 14,1 C 11,2 C 80 % 1020,4 hPa 0,0 l/m 0,00 h 0,00 h 0 W/m 0,9 km/h (0 Bft) 95,12 %
04.07.2022 02:00 14,7 C 13,5 C 10,8 C 82 % 1020,5 hPa 0,0 l/m 0,00 h 0,00 h 0 W/m 0,4 km/h (0 Bft) 98,73 %
04.07.2022 03:00 13,9 C 12,7 C 10,0 C 84 % 1020,2 hPa 0,0 l/m 0,00 h 0,00 h 0 W/m 0,1 km/h (0 Bft) 97,99 %
04.07.2022 04:00 13,4 C 12,3 C 9,5 C 87 % 1020,4 hPa 0,0 l/m 0,00 h 0,00 h 0 W/m 0,0 km/h (0 Bft) 97,95 %
04.07.2022 05:00 13,1 C 12,2 C 9,4 C 88 % 1020,9 hPa 0,0 l/m 0,00 h 0,00 h 7 W/m 0,0 km/h (0 Bft) 96,55 %
04.07.2022 06:00 13,2 C 12,7 C 9,8 C 89 % 1021,1 hPa 0,0 l/m 0,00 h 0,00 h 17 W/m 0,2 km/h (0 Bft) 97,50 %
04.07.2022 07:00 14,3 C 14,2 C 11,1 C 87 % 1021,3 hPa 0,0 l/m 0,23 h 0,00 h 87 W/m 7,6 km/h (2 Bft) 99,44 %
04.07.2022 08:00 16,9 C 19,4 C 14,5 C 80 % 1021,3 hPa 0,0 l/m 1,00 h 0,00 h 407 W/m 8,1 km/h (2 Bft) 95,00 %
04.07.2022 09:00 19,5 C 25,2 C 19,7 C 70 % 1021,3 hPa 0,0 l/m 1,00 h 0,00 h 574 W/m 8,2 km/h (2 Bft) 95,30 %
04.07.2022 10:00 20,7 C 23,6 C 22,3 C 66 % 1021,2 hPa 0,0 l/m 1,00 h 0,00 h 718 W/m 10,4 km/h (2 Bft) 89,68 %
04.07.2022 11:00 22,0 C 24,9 C 21,3 C 60 % 1021,1 hPa 0,0 l/m 1,00 h 0,00 h 839 W/m 11,5 km/h (2 Bft) 98,35 %
04.07.2022 12:00 23,3 C 25,1 C 25,9 C 56 % 1020,9 hPa 0,0 l/m 0,87 h 0,00 h 808 W/m 14,3 km/h (3 Bft) 98,09 %
04.07.2022 13:00 24,2 C 25,7 C 25,8 C 53 % 1020,4 hPa 0,0 l/m 0,83 h 0,00 h 880 W/m 13,1 km/h (3 Bft) 96,08 %
04.07.2022 14:00 25,2 C 27,1 C 22,7 C 50 % 1020,1 hPa 0,0 l/m 0,73 h 0,00 h 831 W/m 13,0 km/h (3 Bft) 97,29 %
04.07.2022 15:00 24,5 C 25,3 C 21,0 C 51 % 1019,9 hPa 0,0 l/m 0,33 h 0,00 h 431 W/m 9,4 km/h (2 Bft) 98,86 %
04.07.2022 16:00 24,9 C 27,8 C 21,2 C 51 % 1019,7 hPa 0,0 l/m 0,77 h 0,00 h 600 W/m 11,1 km/h (2 Bft) 95,44 %
04.07.2022 17:00 25,7 C 30,0 C 21,8 C 49 % 1019,3 hPa 0,0 l/m 0,97 h 0,00 h 608 W/m 13,2 km/h (3 Bft) 99,29 %
04.07.2022 18:00 25,6 C 30,1 C 21,8 C 49 % 1018,9 hPa 0,0 l/m 1,00 h 0,00 h 471 W/m 11,9 km/h (2 Bft) 97,10 %
04.07.2022 19:00 24,8 C 24,5 C 20,3 C 53 % 1018,9 hPa 0,0 l/m 0,63 h 0,00 h 215 W/m 9,0 km/h (2 Bft) 97,88 %
04.07.2022 20:00 23,4 C 22,4 C 18,6 C 58 % 1019,0 hPa 0,0 l/m 0,07 h 0,00 h 48 W/m 6,5 km/h (2 Bft) 97,23 %
04.07.2022 21:00 22,2 C 21,1 C 17,4 C 63 % 1019,4 hPa 0,0 l/m 0,20 h 0,00 h 23 W/m 7,7 km/h (2 Bft) 97,58 %
04.07.2022 22:00 20,8 C 19,1 C 15,6 C 69 % 1020,2 hPa 0,0 l/m 0,00 h 0,00 h 0 W/m 1,9 km/h (1 Bft) 97,30 %
04.07.2022 23:00 19,4 C 17,8 C 14,3 C 74 % 1020,7 hPa 0,0 l/m 0,00 h 0,00 h 0 W/m 1,6 km/h (1 Bft) 97,72 %
05.07.2022 00:00 18,0 C 16,8 C 13,6 C 77 % 1021,0 hPa 0,0 l/m 0,00 h 0,00 h 0 W/m 3,8 km/h (1 Bft) 93,80 %
05.07.2022 01:00 17,1 C 15,9 C 12,6 C 80 % 1021,3 hPa 0,0 l/m 0,00 h 0,00 h 0 W/m 1,9 km/h (1 Bft) 96,86 %
05.07.2022 02:00 16,0 C 14,8 C 11,8 C 83 % 1021,3 hPa 0,0 l/m 0,00 h 0,00 h 0 W/m 2,3 km/h (1 Bft) 99,38 %
05.07.2022 03:00 15,6 C 15,0 C 11,8 C 84 % 1021,4 hPa 0,0 l/m 0,00 h 0,00 h 0 W/m 2,1 km/h (1 Bft) 95,12 %
05.07.2022 04:00 15,5 C 14,4 C 11,4 C 85 % 1021,3 hPa 0,0 l/m 0,00 h 0,00 h 0 W/m 1,1 km/h (0 Bft) 98,86 %
05.07.2022 05:00 15,1 C 13,9 C 10,9 C 87 % 1021,5 hPa 0,0 l/m 0,00 h 0,00 h 9 W/m 0,0 km/h (0 Bft) 98,00 %
05.07.2022 06:00 14,5 C 13,9 C 10,7 C 89 % 1021,7 hPa 0,0 l/m 0,00 h 0,00 h 20 W/m 2,9 km/h (1 Bft) 96,67 %
05.07.2022 07:00 14,9 C 15,1 C 11,8 C 90 % 1022,1 hPa 0,0 l/m 0,20 h 0,00 h 92 W/m 4,8 km/h (1 Bft) 97,80 %
05.07.2022 08:00 17,5 C 19,9 C 14,7 C 80 % 1022,4 hPa 0,0 l/m 0,90 h 0,00 h 355 W/m 4,5 km/h (1 Bft) 97,58 %
05.07.2022 09:00 20,5 C 25,5 C 19,4 C 66 % 1022,7 hPa 0,0 l/m 1,00 h 0,00 h 590 W/m 6,4 km/h (2 Bft) 93,94 %
05.07.2022 10:00 21,1 C 23,0 C 20,2 C 63 % 1022,8 hPa 0,0 l/m 0,73 h 0,00 h 506 W/m 8,5 km/h (2 Bft) 97,47 %
05.07.2022 11:00 21,8 C 24,0 C 20,7 C 60 % 1022,9 hPa 0,0 l/m 0,73 h 0,00 h 683 W/m 9,0 km/h (2 Bft) 98,92 %
05.07.2022 12:00 22,3 C 23,1 C 21,3 C 57 % 1022,8 hPa 0,0 l/m 0,33 h 0,00 h 486 W/m 13,0 km/h (3 Bft) 96,82 %
05.07.2022 13:00 23,1 C 24,6 C 23,4 C 55 % 1022,7 hPa 0,0 l/m 0,87 h 0,00 h 876 W/m 13,3 km/h (3 Bft) 96,80 %
05.07.2022 14:00 24,2 C 26,2 C 21,3 C 53 % 1022,3 hPa 0,0 l/m 0,93 h 0,00 h 853 W/m 13,5 km/h (3 Bft) 97,51 %
05.07.2022 15:00 24,3 C 25,6 C 20,7 C 52 % 1022,1 hPa 0,0 l/m 0,63 h 0,00 h 531 W/m 13,5 km/h (3 Bft) 98,15 %
05.07.2022 16:00 23,7 C 25,8 C 20,0 C 58 % 1022,2 hPa 0,0 l/m 0,63 h 0,00 h 536 W/m 17,9 km/h (3 Bft) 97,01 %
05.07.2022 17:00 22,7 C 22,8 C 19,0 C 60 % 1022,2 hPa 0,0 l/m 0,23 h 0,00 h 238 W/m 16,4 km/h (3 Bft) 96,94 %
05.07.2022 18:00 22,6 C 24,1 C 18,7 C 60 % 1022,3 hPa 0,0 l/m 0,53 h 0,00 h 323 W/m 19,0 km/h (3 Bft) 98,93 %
05.07.2022 19:00 21,2 C 20,8 C 17,1 C 61 % 1022,8 hPa 0,0 l/m 0,07 h 0,00 h 113 W/m 18,7 km/h (3 Bft) 94,70 %
05.07.2022 20:00 20,2 C 19,4 C 16,0 C 61 % 1023,2 hPa 0,0 l/m 0,00 h 0,00 h 54 W/m 17,6 km/h (3 Bft) 97,29 %
05.07.2022 21:00 19,0 C 18,1 C 14,7 C 64 % 1023,6 hPa 0,0 l/m 0,00 h 0,00 h 8 W/m 17,5 km/h (3 Bft) 98,93 %
05.07.2022 22:00 18,1 C 17,1 C 13,8 C 66 % 1024,3 hPa 0,0 l/m 0,00 h 0,00 h 0 W/m 16,0 km/h (3 Bft) 96,23 %
05.07.2022 23:00 16,5 C 15,4 C 12,1 C 73 % 1025,0 hPa 0,0 l/m 0,00 h 0,00 h 0 W/m 9,0 km/h (2 Bft) 98,08 %
06.07.2022 00:00 15,2 C 14,0 C 11,0 C 78 % 1025,4 hPa 0,0 l/m 0,00 h 0,00 h 0 W/m 5,5 km/h (1 Bft) 98,22 %
06.07.2022 01:00 14,0 C 12,8 C 9,9 C 78 % 1025,6 hPa 0,0 l/m 0,00 h 0,00 h 0 W/m 3,1 km/h (1 Bft) 97,15 %
06.07.2022 02:00 13,0 C 12,0 C 8,8 C 81 % 1025,6 hPa 0,0 l/m 0,00 h 0,00 h 0 W/m 3,0 km/h (1 Bft) 96,87 %
06.07.2022 03:00 12,3 C 11,3 C 8,3 C 83 % 1025,6 hPa 0,0 l/m 0,00 h 0,00 h 0 W/m 1,8 km/h (1 Bft) 97,59 %
06.07.2022 04:00 11,8 C 10,7 C 8,0 C 86 % 1025,5 hPa 0,0 l/m 0,00 h 0,00 h 0 W/m 0,6 km/h (0 Bft) 97,56 %
06.07.2022 05:00 11,5 C 10,7 C 7,8 C 88 % 1025,7 hPa 0,0 l/m 0,00 h 0,00 h 8 W/m 0,7 km/h (0 Bft) 97,93 %
06.07.2022 06:00 11,9 C 11,7 C 8,5 C 88 % 1025,7 hPa 0,0 l/m 0,00 h 0,00 h 37 W/m 5,4 km/h (1 Bft) 95,41 %
06.07.2022 07:00 12,8 C 12,6 C 9,2 C 87 % 1025,9 hPa 0,0 l/m 0,10 h 0,00 h 98 W/m 7,3 km/h (2 Bft) 98,72 %
06.07.2022 08:00 14,4 C 14,7 C 11,1 C 84 % 1026,2 hPa 0,0 l/m 0,27 h 0,00 h 199 W/m 8,7 km/h (2 Bft) 97,94 %
06.07.2022 09:00 16,0 C 17,5 C 13,3 C 77 % 1026,4 hPa 0,0 l/m 0,57 h 0,00 h 316 W/m 14,9 km/h (3 Bft) 95,87 %
06.07.2022 10:00 16,8 C 17,2 C 13,6 C 73 % 1026,4 hPa 0,0 l/m 0,13 h 0,00 h 224 W/m 11,7 km/h (2 Bft) 98,87 %
06.07.2022 11:00 18,3 C 20,4 C 16,7 C 66 % 1026,3 hPa 0,0 l/m 0,73 h 0,00 h 647 W/m 11,5 km/h (2 Bft) 97,79 %
06.07.2022 12:00 19,7 C 21,3 C 20,4 C 60 % 1026,2 hPa 0,0 l/m 0,83 h 0,00 h 734 W/m 11,0 km/h (2 Bft) 98,31 %
06.07.2022 13:00 20,2 C 21,2 C 18,9 C 59 % 1026,0 hPa 0,0 l/m 0,67 h 0,00 h 568 W/m 11,9 km/h (2 Bft) 96,37 %
06.07.2022 14:00 20,6 C 21,6 C 17,8 C 57 % 1025,6 hPa 0,0 l/m 0,77 h 0,00 h 529 W/m 11,4 km/h (2 Bft) 97,65 %
06.07.2022 15:00 21,4 C 22,9 C 17,9 C 56 % 1025,2 hPa 0,0 l/m 0,77 h 0,00 h 614 W/m 12,8 km/h (3 Bft) 98,44 %
06.07.2022 16:00 21,6 C 24,2 C 17,9 C 55 % 1024,9 hPa 0,0 l/m 0,60 h 0,00 h 597 W/m 13,2 km/h (3 Bft) 97,15 %
06.07.2022 17:00 22,4 C 25,8 C 18,7 C 54 % 1024,4 hPa 0,0 l/m 0,77 h 0,00 h 565 W/m 12,9 km/h (3 Bft) 96,65 %
06.07.2022 18:00 22,4 C 23,2 C 18,4 C 55 % 1023,8 hPa 0,0 l/m 0,30 h 0,00 h 214 W/m 11,3 km/h (2 Bft) 99,26 %
06.07.2022 19:00 21,9 C 21,6 C 17,7 C 56 % 1023,3 hPa 0,0 l/m 0,43 h 0,00 h 146 W/m 8,5 km/h (2 Bft) 96,15 %
06.07.2022 20:00 21,2 C 20,3 C 16,9 C 59 % 1023,1 hPa 0,0 l/m 0,00 h 0,00 h 51 W/m 7,8 km/h (2 Bft) 97,86 %
06.07.2022 21:00 20,7 C 19,7 C 16,3 C 61 % 1022,8 hPa 0,0 l/m 0,43 h 0,00 h 26 W/m 4,8 km/h (1 Bft) 97,24 %
06.07.2022 22:00 20,3 C 19,1 C 15,7 C 64 % 1022,7 hPa 0,0 l/m 0,00 h 0,00 h 0 W/m 3,0 km/h (1 Bft) 98,36 %
06.07.2022 23:00 19,5 C 18,3 C 15,0 C 68 % 1022,4 hPa 0,0 l/m 0,00 h 0,00 h 0 W/m 3,0 km/h (1 Bft) 96,52 %
07.07.2022 00:00 19,2 C 18,3 C 15,0 C 70 % 1022,1 hPa 0,0 l/m 0,00 h 0,00 h 0 W/m 4,1 km/h (1 Bft) 97,44 %
07.07.2022 01:00 19,1 C 18,2 C 14,8 C 73 % 1021,7 hPa 0,0 l/m 0,00 h 0,00 h 0 W/m 3,6 km/h (1 Bft) 98,14 %
07.07.2022 02:00 18,8 C 17,8 C 14,4 C 75 % 1021,0 hPa 0,0 l/m 0,00 h 0,00 h 0 W/m 6,6 km/h (2 Bft) 96,82 %
07.07.2022 03:00 18,4 C 17,4 C 14,2 C 78 % 1020,2 hPa 0,0 l/m 0,00 h 0,00 h 0 W/m 8,1 km/h (2 Bft) 97,30 %
07.07.2022 04:00 18,3 C 17,6 C 14,4 C 80 % 1019,7 hPa 0,0 l/m 0,00 h 0,00 h 0 W/m 10,6 km/h (2 Bft) 97,99 %
07.07.2022 05:00 18,4 C 17,8 C 14,4 C 82 % 1019,6 hPa 0,0 l/m 0,00 h 0,00 h 5 W/m 11,8 km/h (2 Bft) 97,69 %
07.07.2022 06:00 18,2 C 17,2 C 13,8 C 85 % 1019,1 hPa 0,4 l/m 0,00 h 0,20 h 9 W/m 10,5 km/h (2 Bft) 96,74 %
07.07.2022 07:00 16,9 C 15,8 C 12,0 C 92 % 1019,5 hPa 0,4 l/m 0,00 h 0,47 h 52 W/m 14,6 km/h (3 Bft) 96,78 %
07.07.2022 08:00 16,5 C 16,1 C 12,1 C 95 % 1020,1 hPa 0,2 l/m 0,07 h 0,23 h 130 W/m 18,0 km/h (3 Bft) 96,27 %
07.07.2022 09:00 16,8 C 17,6 C 12,9 C 93 % 1020,7 hPa 0,2 l/m 0,50 h 0,13 h 303 W/m 19,9 km/h (4 Bft) 97,77 %
07.07.2022 10:00 17,3 C 17,6 C 14,0 C 88 % 1021,3 hPa 0,0 l/m 0,30 h 0,20 h 228 W/m 25,2 km/h (4 Bft) 98,14 %
07.07.2022 11:00 17,7 C 18,3 C 14,8 C 85 % 1022,0 hPa 0,0 l/m 0,43 h 0,03 h 392 W/m 22,4 km/h (4 Bft) 97,24 %
07.07.2022 12:00 18,6 C 19,0 C 15,7 C 81 % 1022,7 hPa 0,0 l/m 0,40 h 0,00 h 351 W/m 21,0 km/h (4 Bft) 97,33 %
07.07.2022 13:00 18,8 C 19,0 C 15,8 C 80 % 1023,2 hPa 0,0 l/m 0,27 h 0,00 h 312 W/m 24,3 km/h (4 Bft) 99,57 %
07.07.2022 14:00 19,1 C 19,1 C 15,7 C 79 % 1023,7 hPa 0,0 l/m 0,33 h 0,00 h 307 W/m 22,0 km/h (4 Bft) 95,09 %
07.07.2022 15:00 19,5 C 19,7 C 15,9 C 80 % 1024,1 hPa 0,0 l/m 0,23 h 0,10 h 262 W/m 19,8 km/h (4 Bft) 98,59 %
07.07.2022 16:00 20,5 C 22,5 C 16,9 C 76 % 1024,6 hPa 0,0 l/m 0,67 h 0,00 h 557 W/m 25,4 km/h (4 Bft) 98,13 %
07.07.2022 17:00 20,5 C 21,6 C 16,7 C 69 % 1025,1 hPa 0,0 l/m 0,30 h 0,00 h 321 W/m 28,6 km/h (4 Bft) 97,44 %
07.07.2022 18:00 19,9 C 21,3 C 16,2 C 63 % 1025,9 hPa 0,0 l/m 0,62 h 0,00 h 306 W/m 27,1 km/h (4 Bft) 96,74 %
07.07.2022 19:00 18,9 C 18,8 C 15,0 C 66 % 1026,4 hPa 0,0 l/m 0,60 h 0,00 h 207 W/m 21,9 km/h (4 Bft) 98,35 %
07.07.2022 20:00 18,2 C 17,6 C 14,0 C 67 % 1026,9 hPa 0,0 l/m 0,00 h 0,00 h 51 W/m 19,0 km/h (3 Bft) 97,82 %
07.07.2022 21:00 17,6 C 16,8 C 13,2 C 69 % 1027,7 hPa 0,0 l/m 0,00 h 0,00 h 12 W/m 17,6 km/h (3 Bft) 96,25 %
07.07.2022 22:00 16,8 C 15,9 C 12,6 C 72 % 1028,6 hPa 0,0 l/m 0,00 h 0,00 h 0 W/m 17,4 km/h (3 Bft) 96,60 %
07.07.2022 23:00 16,4 C 15,6 C 12,2 C 72 % 1029,3 hPa 0,0 l/m 0,00 h 0,00 h 0 W/m 13,6 km/h (3 Bft) 98,81 %
08.07.2022 00:00 16,0 C 15,2 C 11,8 C 75 % 1029,8 hPa 0,0 l/m 0,00 h 0,00 h 0 W/m 10,0 km/h (2 Bft) 97,10 %
08.07.2022 01:00 15,7 C 14,9 C 11,6 C 78 % 1030,0 hPa 0,0 l/m 0,00 h 0,00 h 0 W/m 8,1 km/h (2 Bft) 97,79 %
08.07.2022 02:00 15,4 C 14,4 C 11,1 C 81 % 1030,1 hPa 0,0 l/m 0,00 h 0,00 h 0 W/m 4,6 km/h (1 Bft) 97,37 %
08.07.2022 03:00 15,2 C 14,4 C 11,1 C 82 % 1030,3 hPa 0,0 l/m 0,00 h 0,00 h 0 W/m 4,8 km/h (1 Bft) 98,58 %
08.07.2022 04:00 14,8 C 14,1 C 10,8 C 82 % 1030,2 hPa 0,0 l/m 0,00 h 0,00 h 0 W/m 6,3 km/h (2 Bft) 96,80 %
08.07.2022 05:00 14,4 C 13,7 C 10,5 C 83 % 1030,4 hPa 0,0 l/m 0,00 h 0,00 h 9 W/m 5,7 km/h (1 Bft) 97,59 %
08.07.2022 06:00 14,0 C 13,1 C 9,8 C 85 % 1030,7 hPa 0,0 l/m 0,00 h 0,00 h 26 W/m 5,6 km/h (1 Bft) 98,26 %
08.07.2022 07:00 14,2 C 13,8 C 10,4 C 85 % 1031,2 hPa 0,0 l/m 0,13 h 0,00 h 70 W/m 10,6 km/h (2 Bft) 96,94 %
08.07.2022 08:00 15,8 C 17,1 C 12,5 C 79 % 1031,5 hPa 0,0 l/m 0,63 h 0,00 h 280 W/m 11,3 km/h (2 Bft) 97,35 %
08.07.2022 09:00 17,6 C 20,1 C 15,2 C 72 % 1031,8 hPa 0,0 l/m 0,67 h 0,00 h 426 W/m 13,9 km/h (3 Bft) 96,94 %
08.07.2022 10:00 18,2 C 20,0 C 17,5 C 70 % 1031,8 hPa 0,0 l/m 0,80 h 0,00 h 619 W/m 11,0 km/h (2 Bft) 97,53 %
08.07.2022 11:00 19,9 C 22,0 C 18,2 C 66 % 1031,8 hPa 0,0 l/m 0,87 h 0,00 h 725 W/m 11,5 km/h (2 Bft) 99,15 %
08.07.2022 12:00 20,8 C 22,1 C 19,5 C 64 % 1031,7 hPa 0,0 l/m 1,00 h 0,00 h 553 W/m 12,3 km/h (3 Bft) 97,51 %
08.07.2022 13:00 21,8 C 23,0 C 19,5 C 63 % 1031,6 hPa 0,0 l/m 1,00 h 0,00 h 546 W/m 11,3 km/h (2 Bft) 96,72 %
08.07.2022 14:00 23,3 C 25,0 C 19,9 C 61 % 1031,3 hPa 0,0 l/m 1,00 h 0,00 h 708 W/m 12,4 km/h (3 Bft) 97,77 %
08.07.2022 15:00 24,0 C 25,8 C 19,7 C 61 % 1031,0 hPa 0,0 l/m 0,83 h 0,00 h 729 W/m 13,1 km/h (3 Bft) 90,96 %
08.07.2022 16:00 23,9 C 25,3 C 19,8 C 62 % 1030,7 hPa 0,0 l/m 0,63 h 0,00 h 433 W/m 13,8 km/h (3 Bft) 97,65 %
08.07.2022 17:00 24,2 C 27,1 C 20,4 C 62 % 1030,3 hPa 0,0 l/m 0,87 h 0,00 h 509 W/m 12,3 km/h (3 Bft) 97,15 %
08.07.2022 18:00 24,1 C 25,2 C 19,8 C 63 % 1029,8 hPa 0,0 l/m 0,33 h 0,00 h 216 W/m 9,9 km/h (2 Bft) 98,14 %
08.07.2022 19:00 24,6 C 25,3 C 20,1 C 62 % 1029,5 hPa 0,0 l/m 1,00 h 0,00 h 279 W/m 13,7 km/h (3 Bft) 98,22 %
08.07.2022 20:00 23,4 C 22,5 C 18,6 C 65 % 1029,1 hPa 0,0 l/m 0,00 h 0,00 h 44 W/m 7,9 km/h (2 Bft) 95,31 %
08.07.2022 21:00 22,1 C 20,6 C 17,0 C 68 % 1029,2 hPa 0,0 l/m 0,00 h 0,00 h 15 W/m 4,3 km/h (1 Bft) 99,22 %
08.07.2022 22:00 20,5 C 18,6 C 15,0 C 74 % 1029,3 hPa 0,0 l/m 0,00 h 0,00 h 0 W/m 1,0 km/h (0 Bft) 97,58 %
08.07.2022 23:00 19,1 C 17,4 C 14,0 C 79 % 1029,2 hPa 0,0 l/m 0,00 h 0,00 h 0 W/m 0,4 km/h (0 Bft) 96,37 %
09.07.2022 00:00 18,1 C 16,6 C 13,1 C 83 % 1028,9 hPa 0,0 l/m 0,00 h 0,00 h 0 W/m 0,0 km/h (0 Bft) 99,32 %
09.07.2022 01:00 17,1 C 15,7 C 12,4 C 87 % 1028,7 hPa 0,0 l/m 0,00 h 0,00 h 0 W/m 0,0 km/h (0 Bft) 97,32 %
09.07.2022 02:00 16,3 C 15,0 C 12,0 C 89 % 1028,5 hPa 0,0 l/m 0,00 h 0,00 h 0 W/m 0,0 km/h (0 Bft) 97,35 %
09.07.2022 03:00 15,8 C 14,9 C 11,7 C 90 % 1028,2 hPa 0,0 l/m 0,00 h 0,00 h 0 W/m 0,2 km/h (0 Bft) 96,92 %
09.07.2022 04:00 15,6 C 14,5 C 11,3 C 91 % 1027,9 hPa 0,0 l/m 0,00 h 0,00 h 0 W/m 0,4 km/h (0 Bft) 99,22 %
09.07.2022 05:00 15,1 C 14,0 C 10,8 C 92 % 1027,7 hPa 0,0 l/m 0,00 h 0,00 h 8 W/m 0,3 km/h (0 Bft) 96,86 %
09.07.2022 06:00 14,9 C 14,2 C 11,2 C 93 % 1027,7 hPa 0,0 l/m 0,00 h 0,00 h 23 W/m 0,6 km/h (0 Bft) 96,16 %
09.07.2022 07:00 15,8 C 15,7 C 12,3 C 94 % 1027,9 hPa 0,0 l/m 0,03 h 0,00 h 62 W/m 3,9 km/h (1 Bft) 99,70 %
09.07.2022 08:00 17,8 C 20,2 C 15,2 C 89 % 1027,7 hPa 0,0 l/m 0,80 h 0,00 h 343 W/m 5,2 km/h (1 Bft) 95,72 %
09.07.2022 09:00 20,5 C 24,1 C 18,7 C 77 % 1027,8 hPa 0,0 l/m 1,00 h 0,00 h 443 W/m 7,5 km/h (2 Bft) 98,07 %
09.07.2022 10:00 21,5 C 23,2 C 19,6 C 73 % 1027,5 hPa 0,0 l/m 0,83 h 0,00 h 468 W/m 8,4 km/h (2 Bft) 98,02 %
09.07.2022 11:00 22,7 C 24,5 C 20,2 C 69 % 1026,9 hPa 0,0 l/m 0,83 h 0,00 h 588 W/m 7,7 km/h (2 Bft) 97,84 %
09.07.2022 12:00 23,4 C 24,1 C 21,2 C 66 % 1026,5 hPa 0,0 l/m 0,70 h 0,00 h 490 W/m 10,8 km/h (2 Bft) 97,26 %
09.07.2022 13:00 23,8 C 24,1 C 21,0 C 67 % 1026,0 hPa 0,0 l/m 0,37 h 0,00 h 362 W/m 14,3 km/h (3 Bft) 98,33 %
09.07.2022 14:00 23,9 C 24,1 C 20,4 C 68 % 1025,5 hPa 0,0 l/m 0,30 h 0,00 h 364 W/m 14,9 km/h (3 Bft) 97,53 %
09.07.2022 15:00 24,3 C 25,4 C 20,5 C 65 % 1025,3 hPa 0,0 l/m 0,83 h 0,00 h 685 W/m 25,4 km/h (4 Bft) 98,50 %
09.07.2022 16:00 24,3 C 26,7 C 20,5 C 63 % 1025,3 hPa 0,0 l/m 0,83 h 0,00 h 656 W/m 26,8 km/h (4 Bft) 95,52 %
09.07.2022 17:00 24,1 C 26,3 C 20,5 C 61 % 1025,3 hPa 0,0 l/m 0,73 h 0,00 h 488 W/m 23,4 km/h (4 Bft) 99,43 %
09.07.2022 18:00 23,0 C 23,8 C 19,1 C 59 % 1025,1 hPa 0,0 l/m 0,42 h 0,00 h 257 W/m 23,0 km/h (4 Bft) 97,79 %
09.07.2022 19:00 22,3 C 22,6 C 18,3 C 59 % 1025,4 hPa 0,0 l/m 0,50 h 0,00 h 181 W/m 20,8 km/h (4 Bft) 96,73 %
09.07.2022 20:00 20,5 C 19,9 C 16,3 C 66 % 1025,8 hPa 0,0 l/m 0,00 h 0,00 h 68 W/m 20,7 km/h (4 Bft) 98,57 %
09.07.2022 21:00 18,8 C 18,0 C 14,4 C 70 % 1026,4 hPa 0,0 l/m 0,00 h 0,00 h 17 W/m 20,3 km/h (4 Bft) 97,51 %
09.07.2022 22:00 17,3 C 16,5 C 13,0 C 75 % 1027,1 hPa 0,0 l/m 0,00 h 0,00 h 4 W/m 11,8 km/h (2 Bft) 96,16 %
09.07.2022 23:00 16,1 C 15,3 C 11,9 C 76 % 1027,4 hPa 0,0 l/m 0,00 h 0,00 h 0 W/m 10,1 km/h (2 Bft) 99,79 %
10.07.2022 00:00 15,1 C 14,1 C 10,9 C 78 % 1027,3 hPa 0,0 l/m 0,00 h 0,00 h 0 W/m 5,5 km/h (1 Bft) 93,04 %
10.07.2022 01:00 14,3 C 13,5 C 10,3 C 81 % 1027,4 hPa 0,0 l/m 0,00 h 0,00 h 0 W/m 5,3 km/h (1 Bft) 97,16 %
10.07.2022 02:00 14,3 C 13,9 C 10,6 C 83 % 1027,2 hPa 0,0 l/m 0,00 h 0,00 h 0 W/m 3,6 km/h (1 Bft) 98,86 %
10.07.2022 03:00 14,3 C 13,8 C 10,5 C 83 % 1026,8 hPa 0,0 l/m 0,00 h 0,00 h 0 W/m 5,2 km/h (1 Bft) 96,54 %
10.07.2022 04:00 13,9 C 12,8 C 9,7 C 85 % 1026,4 hPa 0,0 l/m 0,00 h 0,00 h 0 W/m 3,1 km/h (1 Bft) 95,98 %
10.07.2022 05:00 13,5 C 12,6 C 9,5 C 86 % 1026,4 hPa 0,0 l/m 0,00 h 0,00 h 7 W/m 2,0 km/h (1 Bft) 98,19 %
10.07.2022 06:00 13,3 C 12,7 C 9,5 C 88 % 1026,4 hPa 0,0 l/m 0,00 h 0,00 h 36 W/m 3,3 km/h (1 Bft) 98,22 %
10.07.2022 07:00 14,2 C 14,0 C 10,8 C 87 % 1026,6 hPa 0,0 l/m 0,00 h 0,00 h 78 W/m 7,1 km/h (2 Bft) 96,43 %
10.07.2022 08:00 15,0 C 14,7 C 11,3 C 84 % 1026,7 hPa 0,0 l/m 0,00 h 0,00 h 90 W/m 8,8 km/h (2 Bft) 98,82 %
10.07.2022 09:00 15,6 C 15,6 C 12,0 C 83 % 1026,9 hPa 0,0 l/m 0,00 h 0,00 h 140 W/m 7,3 km/h (2 Bft) 97,10 %
10.07.2022 10:00 16,2 C 16,0 C 12,3 C 81 % 1026,8 hPa 0,0 l/m 0,00 h 0,00 h 120 W/m 11,0 km/h (2 Bft) 97,58 %
10.07.2022 11:00 15,8 C 15,9 C 11,6 C 88 % 1026,9 hPa 0,0 l/m 0,17 h 0,00 h 263 W/m 11,2 km/h (2 Bft) 97,18 %
10.07.2022 12:00 16,6 C 17,3 C 13,7 C 88 % 1026,4 hPa 0,0 l/m 0,20 h 0,00 h 297 W/m 12,6 km/h (3 Bft) 96,56 %
10.07.2022 13:00 17,3 C 17,2 C 13,6 C 85 % 1026,1 hPa 0,0 l/m 0,07 h 0,13 h 198 W/m 13,2 km/h (3 Bft) 97,58 %
10.07.2022 14:00 18,2 C 18,5 C 14,7 C 79 % 1025,9 hPa 0,0 l/m 0,30 h 0,00 h 280 W/m 14,7 km/h (3 Bft) 99,57 %
10.07.2022 15:00 20,2 C 21,4 C 16,8 C 73 % 1025,6 hPa 0,0 l/m 0,83 h 0,00 h 502 W/m 17,8 km/h (3 Bft) 95,37 %
10.07.2022 16:00 20,6 C 20,7 C 16,7 C 71 % 1025,3 hPa 0,0 l/m 0,37 h 0,00 h 326 W/m 17,1 km/h (3 Bft) 98,60 %
10.07.2022 17:00 20,6 C 20,5 C 16,7 C 72 % 1025,1 hPa 0,0 l/m 0,00 h 0,00 h 212 W/m 15,2 km/h (3 Bft) 97,73 %
10.07.2022 18:00 20,5 C 20,0 C 16,3 C 72 % 1024,7 hPa 0,0 l/m 0,00 h 0,00 h 122 W/m 14,0 km/h (3 Bft) 97,50 %
10.07.2022 19:00 20,2 C 19,4 C 16,1 C 72 % 1024,5 hPa 0,0 l/m 0,00 h 0,00 h 68 W/m 12,7 km/h (3 Bft) 96,64 %
10.07.2022 20:00 20,1 C 19,4 C 15,7 C 72 % 1024,3 hPa 0,0 l/m 0,00 h 0,00 h 37 W/m 5,5 km/h (1 Bft) 98,15 %
10.07.2022 21:00 19,9 C 18,8 C 15,3 C 73 % 1024,1 hPa 0,0 l/m 0,00 h 0,00 h 11 W/m 2,3 km/h (1 Bft) 97,43 %
10.07.2022 22:00 19,4 C 18,3 C 14,8 C 76 % 1024,2 hPa 0,0 l/m 0,00 h 0,00 h 0 W/m 2,0 km/h (1 Bft) 98,00 %
10.07.2022 23:00 19,0 C 17,8 C 14,4 C 78 % 1024,2 hPa 0,0 l/m 0,00 h 0,00 h 0 W/m 5,8 km/h (2 Bft) 96,56 %
Min-Datum _ 06.07.22 06.07.22 06.07.22 04.07.22 04.07.22 - - - - 04.07.22 10.07.22
_ Min-Zeit 05:22 04:08 04:20 14:34 18:48 - - - - 00:00 00:02
Minimum _ 11,4 C 10,6 C 7,8 C 48 % 1018,7 hPa - - - - 0,0 km/h (0 Bft) 9,52 %
Max-Datum _ 04.07.22 04.07.22 04.07.22 07.07.22 08.07.22 07.07.22 04.07.22 07.07.22 06.07.22 07.07.22 04.07.22
_ Max-Zeit 17:10 16:48 13:50 08:40 09:28 06:56 12:08 06:38 13:44 17:08 00:02
Maximum _ 25,8 C 31,1 C 31,1 C 96 % 1031,9 hPa 0,4 l/m 0,07 h 0,03 h 1188 W/m 45,1 km/h
N-NW (6 Bft)
100,00 %
Durchschnitt _ 18,7 C 18,9 C 15,2 C 73 % 1024,9 hPa #1,2 l/m #50:24 h #1:30 h 314 W/m 10,0 km/h (2 Bft) 97,35 %
© 2022 W. Hausmann